sensor_id;sensor_type;location;lat;lon;timestamp;temperature;humidity
7936;DHT22;4013;49.744;8.118;2022-09-21T00:01:54;8.90;99.90
7936;DHT22;4013;49.744;8.118;2022-09-21T00:04:21;8.90;99.90
7936;DHT22;4013;49.744;8.118;2022-09-21T00:06:48;8.90;99.90
7936;DHT22;4013;49.744;8.118;2022-09-21T00:09:15;8.90;99.90
7936;DHT22;4013;49.744;8.118;2022-09-21T00:11:43;8.90;99.90
7936;DHT22;4013;49.744;8.118;2022-09-21T00:14:12;8.80;99.90
7936;DHT22;4013;49.744;8.118;2022-09-21T00:16:40;8.90;99.90
7936;DHT22;4013;49.744;8.118;2022-09-21T00:19:07;8.80;99.90
7936;DHT22;4013;49.744;8.118;2022-09-21T00:21:34;8.90;99.90
7936;DHT22;4013;49.744;8.118;2022-09-21T00:24:03;8.90;99.90
7936;DHT22;4013;49.744;8.118;2022-09-21T00:26:30;8.80;99.90
7936;DHT22;4013;49.744;8.118;2022-09-21T00:29:00;8.80;99.90
7936;DHT22;4013;49.744;8.118;2022-09-21T00:31:28;8.70;99.90
7936;DHT22;4013;49.744;8.118;2022-09-21T00:33:57;8.70;99.90
7936;DHT22;4013;49.744;8.118;2022-09-21T00:36:25;8.60;99.90
7936;DHT22;4013;49.744;8.118;2022-09-21T00:38:54;8.50;99.90
7936;DHT22;4013;49.744;8.118;2022-09-21T00:41:22;8.60;99.90
7936;DHT22;4013;49.744;8.118;2022-09-21T00:44:26;8.60;99.90
7936;DHT22;4013;49.744;8.118;2022-09-21T00:46:55;8.50;99.90
7936;DHT22;4013;49.744;8.118;2022-09-21T00:49:24;8.50;99.90
7936;DHT22;4013;49.744;8.118;2022-09-21T00:51:52;8.50;99.90
7936;DHT22;4013;49.744;8.118;2022-09-21T00:54:22;8.60;99.90
7936;DHT22;4013;49.744;8.118;2022-09-21T00:56:51;8.60;99.90
7936;DHT22;4013;49.744;8.118;2022-09-21T00:59:19;8.60;99.90
7936;DHT22;4013;49.744;8.118;2022-09-21T01:01:47;8.60;99.90
7936;DHT22;4013;49.744;8.118;2022-09-21T01:04:15;8.50;99.90
7936;DHT22;4013;49.744;8.118;2022-09-21T01:06:43;8.50;99.90
7936;DHT22;4013;49.744;8.118;2022-09-21T01:09:12;8.40;99.90
7936;DHT22;4013;49.744;8.118;2022-09-21T01:11:45;8.40;99.90
7936;DHT22;4013;49.744;8.118;2022-09-21T01:14:44;8.50;99.90
7936;DHT22;4013;49.744;8.118;2022-09-21T01:17:20;8.50;99.90
7936;DHT22;4013;49.744;8.118;2022-09-21T01:23:15;8.40;99.90
7936;DHT22;4013;49.744;8.118;2022-09-21T01:25:58;8.50;99.90
7936;DHT22;4013;49.744;8.118;2022-09-21T01:31:13;8.50;99.90
7936;DHT22;4013;49.744;8.118;2022-09-21T01:33:45;8.50;99.90
7936;DHT22;4013;49.744;8.118;2022-09-21T01:36:16;8.40;99.90
7936;DHT22;4013;49.744;8.118;2022-09-21T01:38:47;8.40;99.90
7936;DHT22;4013;49.744;8.118;2022-09-21T01:41:17;8.40;99.90
7936;DHT22;4013;49.744;8.118;2022-09-21T01:43:49;8.50;99.90
7936;DHT22;4013;49.744;8.118;2022-09-21T01:46:20;8.50;99.90
7936;DHT22;4013;49.744;8.118;2022-09-21T01:48:53;8.50;99.90
7936;DHT22;4013;49.744;8.118;2022-09-21T01:51:25;8.40;99.90
7936;DHT22;4013;49.744;8.118;2022-09-21T01:53:55;8.40;99.90
7936;DHT22;4013;49.744;8.118;2022-09-21T01:56:26;8.40;99.90
7936;DHT22;4013;49.744;8.118;2022-09-21T01:59:00;8.30;99.90
7936;DHT22;4013;49.744;8.118;2022-09-21T02:01:31;8.20;99.90
7936;DHT22;4013;49.744;8.118;2022-09-21T02:04:03;8.10;99.90
7936;DHT22;4013;49.744;8.118;2022-09-21T02:06:31;8.20;99.90
7936;DHT22;4013;49.744;8.118;2022-09-21T02:08:58;8.20;99.90
7936;DHT22;4013;49.744;8.118;2022-09-21T02:11:25;8.40;99.90
7936;DHT22;4013;49.744;8.118;2022-09-21T02:13:53;8.30;99.90
7936;DHT22;4013;49.744;8.118;2022-09-21T02:16:35;8.20;99.90
7936;DHT22;4013;49.744;8.118;2022-09-21T02:19:10;8.20;99.90
7936;DHT22;4013;49.744;8.118;2022-09-21T02:24:34;8.40;99.90
7936;DHT22;4013;49.744;8.118;2022-09-21T02:27:04;8.40;99.90
7936;DHT22;4013;49.744;8.118;2022-09-21T02:29:40;8.30;99.90
7936;DHT22;4013;49.744;8.118;2022-09-21T02:32:16;8.20;99.90
7936;DHT22;4013;49.744;8.118;2022-09-21T02:34:51;8.00;99.90
7936;DHT22;4013;49.744;8.118;2022-09-21T02:37:22;8.00;99.90
7936;DHT22;4013;49.744;8.118;2022-09-21T02:40:00;8.00;99.90
7936;DHT22;4013;49.744;8.118;2022-09-21T02:42:30;7.90;99.90
7936;DHT22;4013;49.744;8.118;2022-09-21T02:45:05;7.90;99.90
7936;DHT22;4013;49.744;8.118;2022-09-21T02:47:38;7.80;99.90
7936;DHT22;4013;49.744;8.118;2022-09-21T02:50:11;7.70;99.90
7936;DHT22;4013;49.744;8.118;2022-09-21T02:52:41;7.80;99.90
7936;DHT22;4013;49.744;8.118;2022-09-21T02:55:10;7.80;99.90
7936;DHT22;4013;49.744;8.118;2022-09-21T02:57:39;7.70;99.90
7936;DHT22;4013;49.744;8.118;2022-09-21T03:00:07;7.70;99.90
7936;DHT22;4013;49.744;8.118;2022-09-21T03:02:38;7.70;99.90
7936;DHT22;4013;49.744;8.118;2022-09-21T03:05:06;7.60;99.90
7936;DHT22;4013;49.744;8.118;2022-09-21T03:07:33;7.70;99.90
7936;DHT22;4013;49.744;8.118;2022-09-21T03:10:00;7.80;99.90
7936;DHT22;4013;49.744;8.118;2022-09-21T03:12:27;7.80;99.90
7936;DHT22;4013;49.744;8.118;2022-09-21T03:14:54;7.80;99.90
7936;DHT22;4013;49.744;8.118;2022-09-21T03:17:21;7.70;99.90
7936;DHT22;4013;49.744;8.118;2022-09-21T03:19:50;7.70;99.90
7936;DHT22;4013;49.744;8.118;2022-09-21T03:22:19;7.60;99.90
7936;DHT22;4013;49.744;8.118;2022-09-21T03:24:46;7.60;99.90
7936;DHT22;4013;49.744;8.118;2022-09-21T03:27:14;7.40;99.90
7936;DHT22;4013;49.744;8.118;2022-09-21T03:29:41;7.30;99.90
7936;DHT22;4013;49.744;8.118;2022-09-21T03:32:08;7.30;99.90
7936;DHT22;4013;49.744;8.118;2022-09-21T03:34:35;7.20;99.90
7936;DHT22;4013;49.744;8.118;2022-09-21T03:37:05;7.20;99.90
7936;DHT22;4013;49.744;8.118;2022-09-21T03:39:32;7.20;99.90
7936;DHT22;4013;49.744;8.118;2022-09-21T03:41:59;7.20;99.90
7936;DHT22;4013;49.744;8.118;2022-09-21T03:44:27;7.20;99.90
7936;DHT22;4013;49.744;8.118;2022-09-21T03:46:54;7.30;99.90
7936;DHT22;4013;49.744;8.118;2022-09-21T03:49:22;7.40;99.90
7936;DHT22;4013;49.744;8.118;2022-09-21T03:51:49;7.40;99.90
7936;DHT22;4013;49.744;8.118;2022-09-21T03:54:17;7.50;99.90
7936;DHT22;4013;49.744;8.118;2022-09-21T03:56:44;7.50;99.90
7936;DHT22;4013;49.744;8.118;2022-09-21T03:59:11;7.50;99.90
7936;DHT22;4013;49.744;8.118;2022-09-21T04:01:38;7.50;99.90
7936;DHT22;4013;49.744;8.118;2022-09-21T04:04:04;7.40;99.90
7936;DHT22;4013;49.744;8.118;2022-09-21T04:06:31;7.40;99.90
7936;DHT22;4013;49.744;8.118;2022-09-21T04:08:58;7.40;99.90
7936;DHT22;4013;49.744;8.118;2022-09-21T04:11:28;7.50;99.90
7936;DHT22;4013;49.744;8.118;2022-09-21T04:13:57;7.40;99.90
7936;DHT22;4013;49.744;8.118;2022-09-21T04:16:25;7.40;99.90
7936;DHT22;4013;49.744;8.118;2022-09-21T04:18:52;7.40;99.90
7936;DHT22;4013;49.744;8.118;2022-09-21T04:21:19;7.30;99.90
7936;DHT22;4013;49.744;8.118;2022-09-21T04:23:47;7.20;99.90
7936;DHT22;4013;49.744;8.118;2022-09-21T04:26:22;7.20;99.90
7936;DHT22;4013;49.744;8.118;2022-09-21T04:28:51;7.00;99.90
7936;DHT22;4013;49.744;8.118;2022-09-21T04:31:18;6.80;99.90
7936;DHT22;4013;49.744;8.118;2022-09-21T04:33:47;6.80;99.90
7936;DHT22;4013;49.744;8.118;2022-09-21T04:36:15;6.80;99.90
7936;DHT22;4013;49.744;8.118;2022-09-21T04:38:42;6.70;99.90
7936;DHT22;4013;49.744;8.118;2022-09-21T04:41:09;6.70;99.90
7936;DHT22;4013;49.744;8.118;2022-09-21T04:43:36;6.70;99.90
7936;DHT22;4013;49.744;8.118;2022-09-21T04:46:09;6.70;99.90
7936;DHT22;4013;49.744;8.118;2022-09-21T04:48:36;6.70;99.90
7936;DHT22;4013;49.744;8.118;2022-09-21T04:51:03;6.80;99.90
7936;DHT22;4013;49.744;8.118;2022-09-21T04:53:31;6.80;99.90
7936;DHT22;4013;49.744;8.118;2022-09-21T04:55:57;6.90;99.90
7936;DHT22;4013;49.744;8.118;2022-09-21T04:58:24;6.90;99.90
7936;DHT22;4013;49.744;8.118;2022-09-21T05:00:52;7.00;99.90
7936;DHT22;4013;49.744;8.118;2022-09-21T05:03:23;6.90;99.90
7936;DHT22;4013;49.744;8.118;2022-09-21T05:05:51;6.80;99.90
7936;DHT22;4013;49.744;8.118;2022-09-21T05:08:19;6.70;99.90
7936;DHT22;4013;49.744;8.118;2022-09-21T05:11:09;6.70;99.90
7936;DHT22;4013;49.744;8.118;2022-09-21T05:13:35;6.80;99.90
7936;DHT22;4013;49.744;8.118;2022-09-21T05:16:02;6.80;99.90
7936;DHT22;4013;49.744;8.118;2022-09-21T05:18:30;6.80;99.90
7936;DHT22;4013;49.744;8.118;2022-09-21T05:20:59;6.80;99.90
7936;DHT22;4013;49.744;8.118;2022-09-21T05:23:26;6.70;99.90
7936;DHT22;4013;49.744;8.118;2022-09-21T05:25:55;6.70;99.90
7936;DHT22;4013;49.744;8.118;2022-09-21T05:28:22;6.80;99.90
7936;DHT22;4013;49.744;8.118;2022-09-21T05:30:52;6.70;99.90
7936;DHT22;4013;49.744;8.118;2022-09-21T05:33:21;6.60;99.90
7936;DHT22;4013;49.744;8.118;2022-09-21T05:35:58;6.70;99.90
7936;DHT22;4013;49.744;8.118;2022-09-21T05:38:26;6.60;99.90
7936;DHT22;4013;49.744;8.118;2022-09-21T05:40:54;6.60;99.90
7936;DHT22;4013;49.744;8.118;2022-09-21T05:43:21;6.60;99.90
7936;DHT22;4013;49.744;8.118;2022-09-21T05:45:53;6.60;99.90
7936;DHT22;4013;49.744;8.118;2022-09-21T05:48:24;6.60;99.90
7936;DHT22;4013;49.744;8.118;2022-09-21T05:50:57;6.70;99.90
7936;DHT22;4013;49.744;8.118;2022-09-21T05:53:41;6.80;99.90
7936;DHT22;4013;49.744;8.118;2022-09-21T05:56:21;7.10;99.90
7936;DHT22;4013;49.744;8.118;2022-09-21T05:58:57;7.10;99.90
7936;DHT22;4013;49.744;8.118;2022-09-21T06:01:38;7.20;99.90
7936;DHT22;4013;49.744;8.118;2022-09-21T06:04:10;7.30;99.90
7936;DHT22;4013;49.744;8.118;2022-09-21T06:06:39;7.40;99.90
7936;DHT22;4013;49.744;8.118;2022-09-21T06:09:05;7.50;99.90
7936;DHT22;4013;49.744;8.118;2022-09-21T06:11:32;7.70;99.90
7936;DHT22;4013;49.744;8.118;2022-09-21T06:14:00;7.90;99.90
7936;DHT22;4013;49.744;8.118;2022-09-21T06:16:35;8.10;99.90
7936;DHT22;4013;49.744;8.118;2022-09-21T06:19:02;8.20;99.90
7936;DHT22;4013;49.744;8.118;2022-09-21T06:21:29;8.40;99.90
7936;DHT22;4013;49.744;8.118;2022-09-21T06:23:57;8.50;99.90
7936;DHT22;4013;49.744;8.118;2022-09-21T06:26:26;8.50;99.90
7936;DHT22;4013;49.744;8.118;2022-09-21T06:28:53;8.70;99.90
7936;DHT22;4013;49.744;8.118;2022-09-21T06:31:19;8.70;99.90
7936;DHT22;4013;49.744;8.118;2022-09-21T06:33:46;8.80;99.90
7936;DHT22;4013;49.744;8.118;2022-09-21T06:36:14;8.80;99.90
7936;DHT22;4013;49.744;8.118;2022-09-21T06:38:41;8.80;99.90
7936;DHT22;4013;49.744;8.118;2022-09-21T06:41:10;9.00;99.90
7936;DHT22;4013;49.744;8.118;2022-09-21T06:43:36;8.90;99.90
7936;DHT22;4013;49.744;8.118;2022-09-21T06:46:04;8.90;99.90
7936;DHT22;4013;49.744;8.118;2022-09-21T06:48:32;9.00;99.90
7936;DHT22;4013;49.744;8.118;2022-09-21T06:51:00;9.00;99.90
7936;DHT22;4013;49.744;8.118;2022-09-21T06:53:28;9.00;99.90
7936;DHT22;4013;49.744;8.118;2022-09-21T06:55:59;9.00;99.90
7936;DHT22;4013;49.744;8.118;2022-09-21T06:58:28;9.00;99.90
7936;DHT22;4013;49.744;8.118;2022-09-21T07:00:55;9.10;99.90
7936;DHT22;4013;49.744;8.118;2022-09-21T07:03:23;9.20;99.90
7936;DHT22;4013;49.744;8.118;2022-09-21T07:05:50;9.20;99.90
7936;DHT22;4013;49.744;8.118;2022-09-21T07:08:16;9.20;99.90
7936;DHT22;4013;49.744;8.118;2022-09-21T07:10:43;9.20;99.90
7936;DHT22;4013;49.744;8.118;2022-09-21T07:13:10;9.20;99.90
7936;DHT22;4013;49.744;8.118;2022-09-21T07:15:38;9.30;99.90
7936;DHT22;4013;49.744;8.118;2022-09-21T07:18:10;9.40;99.90
7936;DHT22;4013;49.744;8.118;2022-09-21T07:20:37;9.40;99.90
7936;DHT22;4013;49.744;8.118;2022-09-21T07:23:09;9.50;99.90
7936;DHT22;4013;49.744;8.118;2022-09-21T07:25:36;9.60;99.90
7936;DHT22;4013;49.744;8.118;2022-09-21T07:28:04;9.50;99.90
7936;DHT22;4013;49.744;8.118;2022-09-21T07:30:31;9.50;99.90
7936;DHT22;4013;49.744;8.118;2022-09-21T07:32:59;9.50;99.90
7936;DHT22;4013;49.744;8.118;2022-09-21T07:35:26;9.40;99.90
7936;DHT22;4013;49.744;8.118;2022-09-21T07:37:53;9.40;99.90
7936;DHT22;4013;49.744;8.118;2022-09-21T07:40:21;9.40;99.90
7936;DHT22;4013;49.744;8.118;2022-09-21T07:42:48;9.40;99.90
7936;DHT22;4013;49.744;8.118;2022-09-21T07:45:15;9.40;99.90
7936;DHT22;4013;49.744;8.118;2022-09-21T07:47:42;9.60;99.90
7936;DHT22;4013;49.744;8.118;2022-09-21T07:50:12;9.60;99.90
7936;DHT22;4013;49.744;8.118;2022-09-21T07:52:39;9.60;99.90
7936;DHT22;4013;49.744;8.118;2022-09-21T07:55:06;9.70;99.90
7936;DHT22;4013;49.744;8.118;2022-09-21T07:57:33;9.70;99.90
7936;DHT22;4013;49.744;8.118;2022-09-21T08:00:18;9.60;99.90
7936;DHT22;4013;49.744;8.118;2022-09-21T08:02:45;9.70;99.90
7936;DHT22;4013;49.744;8.118;2022-09-21T08:05:14;9.50;99.90
7936;DHT22;4013;49.744;8.118;2022-09-21T08:07:41;9.50;99.90
7936;DHT22;4013;49.744;8.118;2022-09-21T08:10:08;9.60;99.90
7936;DHT22;4013;49.744;8.118;2022-09-21T08:12:35;9.70;99.90
7936;DHT22;4013;49.744;8.118;2022-09-21T08:15:02;9.90;99.90
7936;DHT22;4013;49.744;8.118;2022-09-21T08:17:29;10.00;99.90
7936;DHT22;4013;49.744;8.118;2022-09-21T08:19:56;10.20;99.90
7936;DHT22;4013;49.744;8.118;2022-09-21T08:22:24;10.00;99.90
7936;DHT22;4013;49.744;8.118;2022-09-21T08:24:51;10.20;99.90
7936;DHT22;4013;49.744;8.118;2022-09-21T08:27:20;10.20;99.90
7936;DHT22;4013;49.744;8.118;2022-09-21T08:29:47;10.30;99.90
7936;DHT22;4013;49.744;8.118;2022-09-21T08:32:14;10.40;99.90
7936;DHT22;4013;49.744;8.118;2022-09-21T08:34:41;10.50;99.90
7936;DHT22;4013;49.744;8.118;2022-09-21T08:37:08;10.50;99.90
7936;DHT22;4013;49.744;8.118;2022-09-21T08:39:36;10.60;99.90
7936;DHT22;4013;49.744;8.118;2022-09-21T08:42:30;10.60;99.90
7936;DHT22;4013;49.744;8.118;2022-09-21T08:45:01;10.90;99.90
7936;DHT22;4013;49.744;8.118;2022-09-21T08:47:37;11.00;99.90
7936;DHT22;4013;49.744;8.118;2022-09-21T08:50:19;11.10;99.90
7936;DHT22;4013;49.744;8.118;2022-09-21T08:52:48;11.20;99.90
7936;DHT22;4013;49.744;8.118;2022-09-21T08:55:18;11.30;99.90
7936;DHT22;4013;49.744;8.118;2022-09-21T08:57:45;11.40;99.90
7936;DHT22;4013;49.744;8.118;2022-09-21T09:00:14;11.50;99.90
7936;DHT22;4013;49.744;8.118;2022-09-21T09:03:13;11.60;99.90
7936;DHT22;4013;49.744;8.118;2022-09-21T09:05:47;11.70;99.90
7936;DHT22;4013;49.744;8.118;2022-09-21T09:08:34;11.70;99.90
7936;DHT22;4013;49.744;8.118;2022-09-21T09:11:14;11.70;99.90
7936;DHT22;4013;49.744;8.118;2022-09-21T09:14:01;11.80;99.90
7936;DHT22;4013;49.744;8.118;2022-09-21T09:16:37;11.90;99.90
7936;DHT22;4013;49.744;8.118;2022-09-21T09:19:17;12.00;99.90
7936;DHT22;4013;49.744;8.118;2022-09-21T09:21:47;12.10;99.90
7936;DHT22;4013;49.744;8.118;2022-09-21T09:24:23;12.10;99.90
7936;DHT22;4013;49.744;8.118;2022-09-21T09:27:00;12.20;99.90
7936;DHT22;4013;49.744;8.118;2022-09-21T09:29:32;12.30;99.90
7936;DHT22;4013;49.744;8.118;2022-09-21T09:32:00;12.30;99.90
7936;DHT22;4013;49.744;8.118;2022-09-21T09:34:31;12.40;99.90
7936;DHT22;4013;49.744;8.118;2022-09-21T09:37:08;12.50;99.90
7936;DHT22;4013;49.744;8.118;2022-09-21T09:39:36;12.50;99.90
7936;DHT22;4013;49.744;8.118;2022-09-21T09:42:28;12.60;99.90
7936;DHT22;4013;49.744;8.118;2022-09-21T09:45:15;12.70;99.90
7936;DHT22;4013;49.744;8.118;2022-09-21T09:47:56;12.70;99.90
7936;DHT22;4013;49.744;8.118;2022-09-21T09:50:28;12.60;99.90
7936;DHT22;4013;49.744;8.118;2022-09-21T09:53:02;12.70;99.90
7936;DHT22;4013;49.744;8.118;2022-09-21T09:55:35;12.70;99.90
7936;DHT22;4013;49.744;8.118;2022-09-21T09:58:11;12.90;99.90
7936;DHT22;4013;49.744;8.118;2022-09-21T10:00:42;13.00;99.90
7936;DHT22;4013;49.744;8.118;2022-09-21T10:03:15;13.00;99.90
7936;DHT22;4013;49.744;8.118;2022-09-21T10:05:44;13.10;99.90
7936;DHT22;4013;49.744;8.118;2022-09-21T10:08:27;13.20;99.90
7936;DHT22;4013;49.744;8.118;2022-09-21T10:10:54;13.40;99.90
7936;DHT22;4013;49.744;8.118;2022-09-21T10:13:26;13.50;99.90
7936;DHT22;4013;49.744;8.118;2022-09-21T10:15:56;13.50;99.90
7936;DHT22;4013;49.744;8.118;2022-09-21T10:18:25;13.60;99.90
7936;DHT22;4013;49.744;8.118;2022-09-21T10:21:00;13.60;99.90
7936;DHT22;4013;49.744;8.118;2022-09-21T10:23:29;13.60;99.90
7936;DHT22;4013;49.744;8.118;2022-09-21T10:26:02;13.70;99.90
7936;DHT22;4013;49.744;8.118;2022-09-21T10:28:31;13.90;99.90
7936;DHT22;4013;49.744;8.118;2022-09-21T10:31:21;13.90;99.90
7936;DHT22;4013;49.744;8.118;2022-09-21T10:33:51;14.00;99.90
7936;DHT22;4013;49.744;8.118;2022-09-21T10:36:31;14.00;99.90
7936;DHT22;4013;49.744;8.118;2022-09-21T10:39:17;14.10;99.90
7936;DHT22;4013;49.744;8.118;2022-09-21T10:41:48;14.10;99.90
7936;DHT22;4013;49.744;8.118;2022-09-21T10:44:19;14.10;99.90
7936;DHT22;4013;49.744;8.118;2022-09-21T10:46:47;14.30;99.90
7936;DHT22;4013;49.744;8.118;2022-09-21T10:49:18;14.30;99.90
7936;DHT22;4013;49.744;8.118;2022-09-21T10:51:47;14.40;99.90
7936;DHT22;4013;49.744;8.118;2022-09-21T10:54:19;14.40;99.90
7936;DHT22;4013;49.744;8.118;2022-09-21T10:56:52;14.50;99.90
7936;DHT22;4013;49.744;8.118;2022-09-21T10:59:24;14.60;99.90
7936;DHT22;4013;49.744;8.118;2022-09-21T11:01:52;14.50;99.90
7936;DHT22;4013;49.744;8.118;2022-09-21T11:04:29;14.60;99.90
7936;DHT22;4013;49.744;8.118;2022-09-21T11:07:03;14.70;99.90
7936;DHT22;4013;49.744;8.118;2022-09-21T11:09:38;14.70;99.90
7936;DHT22;4013;49.744;8.118;2022-09-21T11:12:34;14.80;99.90
7936;DHT22;4013;49.744;8.118;2022-09-21T11:15:14;14.70;99.90
7936;DHT22;4013;49.744;8.118;2022-09-21T11:17:46;14.80;99.90
7936;DHT22;4013;49.744;8.118;2022-09-21T11:20:21;14.80;99.90
7936;DHT22;4013;49.744;8.118;2022-09-21T11:22:58;14.80;99.90
7936;DHT22;4013;49.744;8.118;2022-09-21T11:25:31;15.00;99.90
7936;DHT22;4013;49.744;8.118;2022-09-21T11:28:07;15.00;99.90
7936;DHT22;4013;49.744;8.118;2022-09-21T11:33:48;15.10;99.90
7936;DHT22;4013;49.744;8.118;2022-09-21T11:36:27;15.10;99.90
7936;DHT22;4013;49.744;8.118;2022-09-21T11:39:01;15.10;99.90
7936;DHT22;4013;49.744;8.118;2022-09-21T11:41:44;15.10;99.90
7936;DHT22;4013;49.744;8.118;2022-09-21T11:44:25;15.10;99.90
7936;DHT22;4013;49.744;8.118;2022-09-21T11:47:04;15.20;99.90
7936;DHT22;4013;49.744;8.118;2022-09-21T11:50:04;15.20;99.90
7936;DHT22;4013;49.744;8.118;2022-09-21T11:52:47;15.30;99.90
7936;DHT22;4013;49.744;8.118;2022-09-21T11:55:35;15.40;99.90
7936;DHT22;4013;49.744;8.118;2022-09-21T11:58:08;15.40;99.90
7936;DHT22;4013;49.744;8.118;2022-09-21T12:00:46;15.50;99.90
7936;DHT22;4013;49.744;8.118;2022-09-21T12:03:46;15.60;99.90
7936;DHT22;4013;49.744;8.118;2022-09-21T12:06:27;15.60;99.90
7936;DHT22;4013;49.744;8.118;2022-09-21T12:09:33;15.60;99.90
7936;DHT22;4013;49.744;8.118;2022-09-21T12:12:10;15.70;99.90
7936;DHT22;4013;49.744;8.118;2022-09-21T12:14:44;15.80;99.90
7936;DHT22;4013;49.744;8.118;2022-09-21T12:17:19;15.80;99.90
7936;DHT22;4013;49.744;8.118;2022-09-21T12:19:56;15.80;99.90
7936;DHT22;4013;49.744;8.118;2022-09-21T12:22:28;15.90;99.90
7936;DHT22;4013;49.744;8.118;2022-09-21T12:25:01;16.10;99.90
7936;DHT22;4013;49.744;8.118;2022-09-21T12:27:33;16.10;99.90
7936;DHT22;4013;49.744;8.118;2022-09-21T12:30:10;16.20;99.90
7936;DHT22;4013;49.744;8.118;2022-09-21T12:32:45;16.10;99.90
7936;DHT22;4013;49.744;8.118;2022-09-21T12:35:24;16.10;99.90
7936;DHT22;4013;49.744;8.118;2022-09-21T12:37:57;16.20;99.90
7936;DHT22;4013;49.744;8.118;2022-09-21T12:40:30;16.30;99.90
7936;DHT22;4013;49.744;8.118;2022-09-21T12:43:05;16.40;99.90
7936;DHT22;4013;49.744;8.118;2022-09-21T12:45:37;16.50;99.90
7936;DHT22;4013;49.744;8.118;2022-09-21T12:48:10;16.50;99.90
7936;DHT22;4013;49.744;8.118;2022-09-21T12:50:44;16.50;99.90
7936;DHT22;4013;49.744;8.118;2022-09-21T12:53:15;16.70;99.90
7936;DHT22;4013;49.744;8.118;2022-09-21T12:55:50;16.70;99.90
7936;DHT22;4013;49.744;8.118;2022-09-21T12:58:27;16.80;99.90
7936;DHT22;4013;49.744;8.118;2022-09-21T13:01:03;16.90;99.90
7936;DHT22;4013;49.744;8.118;2022-09-21T13:03:34;16.90;99.90
7936;DHT22;4013;49.744;8.118;2022-09-21T13:06:21;17.00;99.90
7936;DHT22;4013;49.744;8.118;2022-09-21T13:08:52;17.80;99.90
7936;DHT22;4013;49.744;8.118;2022-09-21T13:11:19;18.80;99.90
7936;DHT22;4013;49.744;8.118;2022-09-21T13:13:49;18.90;99.90
7936;DHT22;4013;49.744;8.118;2022-09-21T13:16:24;18.70;99.90
7936;DHT22;4013;49.744;8.118;2022-09-21T13:18:56;18.50;99.90
7936;DHT22;4013;49.744;8.118;2022-09-21T13:21:27;18.30;99.90
7936;DHT22;4013;49.744;8.118;2022-09-21T13:23:56;18.10;99.90
7936;DHT22;4013;49.744;8.118;2022-09-21T13:26:31;17.90;99.90
7936;DHT22;4013;49.744;8.118;2022-09-21T13:29:06;17.70;99.90
7936;DHT22;4013;49.744;8.118;2022-09-21T13:31:57;17.40;99.90
7936;DHT22;4013;49.744;8.118;2022-09-21T13:34:27;17.20;99.90
7936;DHT22;4013;49.744;8.118;2022-09-21T13:37:25;17.40;99.90
7936;DHT22;4013;49.744;8.118;2022-09-21T13:43:18;17.40;99.90
7936;DHT22;4013;49.744;8.118;2022-09-21T13:45:54;17.40;99.90
7936;DHT22;4013;49.744;8.118;2022-09-21T13:48:24;17.50;99.90
7936;DHT22;4013;49.744;8.118;2022-09-21T13:50:59;17.20;99.90
7936;DHT22;4013;49.744;8.118;2022-09-21T13:53:32;16.90;99.90
7936;DHT22;4013;49.744;8.118;2022-09-21T13:56:15;16.80;99.90
7936;DHT22;4013;49.744;8.118;2022-09-21T13:58:44;16.80;99.90
7936;DHT22;4013;49.744;8.118;2022-09-21T14:01:15;16.90;99.90
7936;DHT22;4013;49.744;8.118;2022-09-21T14:03:45;17.00;99.90
7936;DHT22;4013;49.744;8.118;2022-09-21T14:06:16;17.10;99.90
7936;DHT22;4013;49.744;8.118;2022-09-21T14:08:50;17.20;99.90
7936;DHT22;4013;49.744;8.118;2022-09-21T14:11:22;17.30;99.90
7936;DHT22;4013;49.744;8.118;2022-09-21T14:14:11;17.30;99.90
7936;DHT22;4013;49.744;8.118;2022-09-21T14:16:53;17.50;99.90
7936;DHT22;4013;49.744;8.118;2022-09-21T14:22:37;17.70;99.90
7936;DHT22;4013;49.744;8.118;2022-09-21T14:25:27;17.60;99.90
7936;DHT22;4013;49.744;8.118;2022-09-21T14:28:01;17.60;99.90
7936;DHT22;4013;49.744;8.118;2022-09-21T14:30:33;17.50;99.90
7936;DHT22;4013;49.744;8.118;2022-09-21T14:33:18;17.30;99.90
7936;DHT22;4013;49.744;8.118;2022-09-21T14:35:46;17.30;99.90
7936;DHT22;4013;49.744;8.118;2022-09-21T14:38:18;17.40;99.90
7936;DHT22;4013;49.744;8.118;2022-09-21T14:40:49;17.70;99.90
7936;DHT22;4013;49.744;8.118;2022-09-21T14:43:19;18.30;99.90
7936;DHT22;4013;49.744;8.118;2022-09-21T14:46:05;18.70;99.80
7936;DHT22;4013;49.744;8.118;2022-09-21T14:48:39;18.60;98.40
7936;DHT22;4013;49.744;8.118;2022-09-21T14:51:16;18.30;99.50
7936;DHT22;4013;49.744;8.118;2022-09-21T14:54:08;17.80;99.30
7936;DHT22;4013;49.744;8.118;2022-09-21T14:57:06;17.60;99.90
7936;DHT22;4013;49.744;8.118;2022-09-21T14:59:48;17.50;99.90
7936;DHT22;4013;49.744;8.118;2022-09-21T15:02:22;17.20;99.90
7936;DHT22;4013;49.744;8.118;2022-09-21T15:05:07;17.10;99.90
7936;DHT22;4013;49.744;8.118;2022-09-21T15:07:41;17.00;99.90
7936;DHT22;4013;49.744;8.118;2022-09-21T15:10:30;17.00;99.90
7936;DHT22;4013;49.744;8.118;2022-09-21T15:13:22;16.90;99.90
7936;DHT22;4013;49.744;8.118;2022-09-21T15:16:10;16.90;99.90
7936;DHT22;4013;49.744;8.118;2022-09-21T15:18:44;16.80;99.90
7936;DHT22;4013;49.744;8.118;2022-09-21T15:21:19;16.90;99.90
7936;DHT22;4013;49.744;8.118;2022-09-21T15:23:49;16.80;99.90
7936;DHT22;4013;49.744;8.118;2022-09-21T15:26:20;16.80;99.90
7936;DHT22;4013;49.744;8.118;2022-09-21T15:28:53;16.80;99.90
7936;DHT22;4013;49.744;8.118;2022-09-21T15:31:20;16.80;99.90
7936;DHT22;4013;49.744;8.118;2022-09-21T15:33:47;16.80;99.90
7936;DHT22;4013;49.744;8.118;2022-09-21T15:36:19;16.90;99.90
7936;DHT22;4013;49.744;8.118;2022-09-21T15:38:48;16.80;99.90
7936;DHT22;4013;49.744;8.118;2022-09-21T15:41:36;16.80;99.90
7936;DHT22;4013;49.744;8.118;2022-09-21T15:44:12;16.80;99.90
7936;DHT22;4013;49.744;8.118;2022-09-21T15:46:41;16.70;99.90
7936;DHT22;4013;49.744;8.118;2022-09-21T15:49:13;16.60;99.90
7936;DHT22;4013;49.744;8.118;2022-09-21T15:51:46;16.60;99.90
7936;DHT22;4013;49.744;8.118;2022-09-21T15:54:27;16.50;99.90
7936;DHT22;4013;49.744;8.118;2022-09-21T15:56:57;16.50;99.90
7936;DHT22;4013;49.744;8.118;2022-09-21T15:59:25;16.50;99.90
7936;DHT22;4013;49.744;8.118;2022-09-21T16:01:56;16.50;99.90
7936;DHT22;4013;49.744;8.118;2022-09-21T16:04:25;16.40;99.90
7936;DHT22;4013;49.744;8.118;2022-09-21T16:07:01;16.40;99.90
7936;DHT22;4013;49.744;8.118;2022-09-21T16:09:39;16.40;99.90
7936;DHT22;4013;49.744;8.118;2022-09-21T16:12:39;16.30;99.90
7936;DHT22;4013;49.744;8.118;2022-09-21T16:15:15;16.30;99.90
7936;DHT22;4013;49.744;8.118;2022-09-21T16:17:57;16.30;99.90
7936;DHT22;4013;49.744;8.118;2022-09-21T16:20:38;16.30;99.90
7936;DHT22;4013;49.744;8.118;2022-09-21T16:23:12;16.20;99.90
7936;DHT22;4013;49.744;8.118;2022-09-21T16:25:40;16.10;99.90
7936;DHT22;4013;49.744;8.118;2022-09-21T16:28:25;16.10;99.90
7936;DHT22;4013;49.744;8.118;2022-09-21T16:30:56;16.10;99.90
7936;DHT22;4013;49.744;8.118;2022-09-21T16:33:37;16.10;99.90
7936;DHT22;4013;49.744;8.118;2022-09-21T16:36:36;16.00;99.90
7936;DHT22;4013;49.744;8.118;2022-09-21T16:39:08;16.00;99.90
7936;DHT22;4013;49.744;8.118;2022-09-21T16:41:37;16.00;99.90
7936;DHT22;4013;49.744;8.118;2022-09-21T16:44:05;16.00;99.90
7936;DHT22;4013;49.744;8.118;2022-09-21T16:46:33;16.00;99.90
7936;DHT22;4013;49.744;8.118;2022-09-21T16:49:00;15.90;99.90
7936;DHT22;4013;49.744;8.118;2022-09-21T16:51:27;15.90;99.90
7936;DHT22;4013;49.744;8.118;2022-09-21T16:53:54;15.80;99.90
7936;DHT22;4013;49.744;8.118;2022-09-21T16:56:22;15.70;99.90
7936;DHT22;4013;49.744;8.118;2022-09-21T16:58:49;15.70;99.90
7936;DHT22;4013;49.744;8.118;2022-09-21T17:01:18;15.60;99.90
7936;DHT22;4013;49.744;8.118;2022-09-21T17:03:46;15.60;99.90